Terminal Aerodrome Forecast
Issued by NWS

Home | Current Version | Previous Version | Graphics & Text | Print | Product List | Glossary Off
Versions: 1 2 3 4 5 6 7 8 9 10 11 12 13 14 15 16 17 18

000
FTUS42 KMHX 290200 AAB
TAFISO
TAF AMD
KISO 290229Z 2902/2924 VRB05KT 3SM BR SCT010 BKN025
      TEMPO 2902/2905 2SM -DZ BKN009
     FM290600 04003KT 4SM -RA BR OVC005
     FM291300 03006KT 3SM -RA BR OVC004
      AMD LTD TO CLD VIS AND WIND=

USA.gov is the U.S. government's official web portal to all federal, state and local government web resources and services.